sensor_id;sensor_type;location;lat;lon;timestamp;pressure;altitude;pressure_sealevel;temperature;humidity
30343;BME280;17145;49.902;8.680;'2022-12-10 00:59:05';99060;;;2;51
30343;BME280;17145;49.902;8.680;'2022-12-10 01:01:33';99060;;;2;51
30343;BME280;17145;49.902;8.680;'2022-12-10 01:04:01';99060;;;2;51
30343;BME280;17145;49.902;8.680;'2022-12-10 01:06:31';99070;;;2;51
30343;BME280;17145;49.902;8.680;'2022-12-10 01:08:59';99070;;;2;51
30343;BME280;17145;49.902;8.680;'2022-12-10 01:11:27';99070;;;1;51
30343;BME280;17145;49.902;8.680;'2022-12-10 01:13:55';99070;;;1;51
30343;BME280;17145;49.902;8.680;'2022-12-10 01:16:25';99080;;;2;51
30343;BME280;17145;49.902;8.680;'2022-12-10 01:18:53';99080;;;2;51
30343;BME280;17145;49.902;8.680;'2022-12-10 01:21:24';99080;;;2;50
30343;BME280;17145;49.902;8.680;'2022-12-10 01:23:52';99070;;;1;51
30343;BME280;17145;49.902;8.680;'2022-12-10 01:26:21';99070;;;1;51
30343;BME280;17145;49.902;8.680;'2022-12-10 01:28:50';99070;;;1;51
30343;BME280;17145;49.902;8.680;'2022-12-10 01:31:20';99070;;;1;51
30343;BME280;17145;49.902;8.680;'2022-12-10 01:33:48';99070;;;1;51
30343;BME280;17145;49.902;8.680;'2022-12-10 01:36:17';99070;;;1;51
30343;BME280;17145;49.902;8.680;'2022-12-10 01:38:46';99070;;;1;50
30343;BME280;17145;49.902;8.680;'2022-12-10 01:41:14';99070;;;1;50
30343;BME280;17145;49.902;8.680;'2022-12-10 01:43:42';99060;;;1;51
30343;BME280;17145;49.902;8.680;'2022-12-10 01:46:10';99060;;;1;51
30343;BME280;17145;49.902;8.680;'2022-12-10 01:48:38';99060;;;1;51
30343;BME280;17145;49.902;8.680;'2022-12-10 01:51:09';99070;;;1;51
30343;BME280;17145;49.902;8.680;'2022-12-10 01:53:38';99070;;;1;51
30343;BME280;17145;49.902;8.680;'2022-12-10 01:56:08';99070;;;1;51
30343;BME280;17145;49.902;8.680;'2022-12-10 01:58:37';99070;;;1;51
30343;BME280;17145;49.902;8.680;'2022-12-10 02:01:10';99070;;;1;51
30343;BME280;17145;49.902;8.680;'2022-12-10 02:03:38';99070;;;1;51
30343;BME280;17145;49.902;8.680;'2022-12-10 02:06:13';99080;;;1;51
30343;BME280;17145;49.902;8.680;'2022-12-10 02:08:41';99080;;;1;51
30343;BME280;17145;49.902;8.680;'2022-12-10 02:11:09';99080;;;1;51
30343;BME280;17145;49.902;8.680;'2022-12-10 02:13:37';99080;;;1;51
30343;BME280;17145;49.902;8.680;'2022-12-10 02:16:07';99090;;;1;51
30343;BME280;17145;49.902;8.680;'2022-12-10 02:18:35';99090;;;1;51
30343;BME280;17145;49.902;8.680;'2022-12-10 02:21:04';99090;;;1;51
30343;BME280;17145;49.902;8.680;'2022-12-10 02:23:33';99090;;;1;51
30343;BME280;17145;49.902;8.680;'2022-12-10 02:26:03';99090;;;1;51
30343;BME280;17145;49.902;8.680;'2022-12-10 02:28:31';99090;;;1;51
30343;BME280;17145;49.902;8.680;'2022-12-10 02:31:00';99090;;;1;51
30343;BME280;17145;49.902;8.680;'2022-12-10 02:33:28';99100;;;1;51
30343;BME280;17145;49.902;8.680;'2022-12-10 02:35:55';99100;;;1;51
30343;BME280;17145;49.902;8.680;'2022-12-10 02:38:23';99100;;;1;51
30343;BME280;17145;49.902;8.680;'2022-12-10 02:40:50';99100;;;1;51
30343;BME280;17145;49.902;8.680;'2022-12-10 02:43:18';99110;;;1;51
30343;BME280;17145;49.902;8.680;'2022-12-10 02:45:45';99110;;;1;51
30343;BME280;17145;49.902;8.680;'2022-12-10 02:48:13';99110;;;1;51
30343;BME280;17145;49.902;8.680;'2022-12-10 02:50:40';99110;;;1;51
30343;BME280;17145;49.902;8.680;'2022-12-10 02:53:09';99120;;;1;51
30343;BME280;17145;49.902;8.680;'2022-12-10 02:55:42';99120;;;1;51
30343;BME280;17145;49.902;8.680;'2022-12-10 02:58:10';99120;;;1;51
30343;BME280;17145;49.902;8.680;'2022-12-10 03:00:44';99120;;;1;51
30343;BME280;17145;49.902;8.680;'2022-12-10 03:03:18';99120;;;1;51
30343;BME280;17145;49.902;8.680;'2022-12-10 03:05:55';99120;;;1;51
30343;BME280;17145;49.902;8.680;'2022-12-10 03:08:28';99110;;;1;51
30343;BME280;17145;49.902;8.680;'2022-12-10 03:11:08';99110;;;1;51
30343;BME280;17145;49.902;8.680;'2022-12-10 03:13:41';99110;;;1;51
30343;BME280;17145;49.902;8.680;'2022-12-10 03:16:14';99110;;;1;51
30343;BME280;17145;49.902;8.680;'2022-12-10 03:18:48';99120;;;1;51
30343;BME280;17145;49.902;8.680;'2022-12-10 03:21:21';99110;;;1;51
30343;BME280;17145;49.902;8.680;'2022-12-10 03:23:54';99120;;;1;51
30343;BME280;17145;49.902;8.680;'2022-12-10 03:26:27';99120;;;1;51
30343;BME280;17145;49.902;8.680;'2022-12-10 03:29:06';99120;;;1;51
30343;BME280;17145;49.902;8.680;'2022-12-10 03:31:36';99120;;;1;51
30343;BME280;17145;49.902;8.680;'2022-12-10 03:34:08';99120;;;1;51
30343;BME280;17145;49.902;8.680;'2022-12-10 03:36:40';99120;;;1;51
30343;BME280;17145;49.902;8.680;'2022-12-10 03:39:11';99120;;;1;51
30343;BME280;17145;49.902;8.680;'2022-12-10 03:41:44';99120;;;1;51
30343;BME280;17145;49.902;8.680;'2022-12-10 03:44:14';99120;;;1;51
30343;BME280;17145;49.902;8.680;'2022-12-10 03:46:44';99130;;;1;50
30343;BME280;17145;49.902;8.680;'2022-12-10 03:49:15';99120;;;1;50
30343;BME280;17145;49.902;8.680;'2022-12-10 03:54:25';99120;;;1;50
30343;BME280;17145;49.902;8.680;'2022-12-10 03:56:59';99130;;;1;51
30343;BME280;17145;49.902;8.680;'2022-12-10 03:59:33';99120;;;1;50
30343;BME280;17145;49.902;8.680;'2022-12-10 04:02:09';99120;;;1;51
30343;BME280;17145;49.902;8.680;'2022-12-10 04:04:44';99120;;;1;50
30343;BME280;17145;49.902;8.680;'2022-12-10 04:07:19';99120;;;1;50
30343;BME280;17145;49.902;8.680;'2022-12-10 04:09:53';99120;;;1;50
30343;BME280;17145;49.902;8.680;'2022-12-10 04:12:27';99120;;;1;50
30343;BME280;17145;49.902;8.680;'2022-12-10 04:14:59';99120;;;1;50
30343;BME280;17145;49.902;8.680;'2022-12-10 04:17:31';99110;;;1;51
30343;BME280;17145;49.902;8.680;'2022-12-10 04:20:00';99110;;;1;50
30343;BME280;17145;49.902;8.680;'2022-12-10 04:22:29';99110;;;1;50
30343;BME280;17145;49.902;8.680;'2022-12-10 04:24:58';99110;;;1;50
30343;BME280;17145;49.902;8.680;'2022-12-10 04:27:28';99110;;;1;50
30343;BME280;17145;49.902;8.680;'2022-12-10 04:29:58';99100;;;1;50
30343;BME280;17145;49.902;8.680;'2022-12-10 04:32:28';99100;;;1;50
30343;BME280;17145;49.902;8.680;'2022-12-10 04:34:59';99100;;;1;50
30343;BME280;17145;49.902;8.680;'2022-12-10 04:37:28';99100;;;1;50
30343;BME280;17145;49.902;8.680;'2022-12-10 04:39:57';99100;;;1;50
30343;BME280;17145;49.902;8.680;'2022-12-10 04:42:24';99100;;;1;50
30343;BME280;17145;49.902;8.680;'2022-12-10 04:44:52';99100;;;1;50
30343;BME280;17145;49.902;8.680;'2022-12-10 04:47:20';99100;;;1;50
30343;BME280;17145;49.902;8.680;'2022-12-10 04:49:47';99100;;;1;50
30343;BME280;17145;49.902;8.680;'2022-12-10 04:52:15';99100;;;1;50
30343;BME280;17145;49.902;8.680;'2022-12-10 04:54:42';99100;;;1;50
30343;BME280;17145;49.902;8.680;'2022-12-10 04:57:10';99110;;;1;50
30343;BME280;17145;49.902;8.680;'2022-12-10 04:59:37';99110;;;1;50
30343;BME280;17145;49.902;8.680;'2022-12-10 05:02:04';99110;;;1;50
30343;BME280;17145;49.902;8.680;'2022-12-10 05:04:32';99110;;;1;50
30343;BME280;17145;49.902;8.680;'2022-12-10 05:06:59';99120;;;1;50
30343;BME280;17145;49.902;8.680;'2022-12-10 05:09:26';99120;;;1;49
30343;BME280;17145;49.902;8.680;'2022-12-10 05:11:56';99120;;;1;50
30343;BME280;17145;49.902;8.680;'2022-12-10 05:14:25';99120;;;1;50
30343;BME280;17145;49.902;8.680;'2022-12-10 05:16:52';99120;;;1;50
30343;BME280;17145;49.902;8.680;'2022-12-10 05:19:21';99120;;;1;50
30343;BME280;17145;49.902;8.680;'2022-12-10 05:21:49';99120;;;1;50
30343;BME280;17145;49.902;8.680;'2022-12-10 05:24:17';99120;;;1;50
30343;BME280;17145;49.902;8.680;'2022-12-10 05:26:45';99120;;;1;50
30343;BME280;17145;49.902;8.680;'2022-12-10 05:29:12';99120;;;1;50
30343;BME280;17145;49.902;8.680;'2022-12-10 05:31:39';99120;;;1;50
30343;BME280;17145;49.902;8.680;'2022-12-10 05:34:07';99120;;;1;50
30343;BME280;17145;49.902;8.680;'2022-12-10 05:36:34';99120;;;1;50
30343;BME280;17145;49.902;8.680;'2022-12-10 05:39:02';99120;;;1;50
30343;BME280;17145;49.902;8.680;'2022-12-10 05:41:30';99120;;;1;50
30343;BME280;17145;49.902;8.680;'2022-12-10 05:43:57';99120;;;1;50
30343;BME280;17145;49.902;8.680;'2022-12-10 05:46:24';99120;;;1;50
30343;BME280;17145;49.902;8.680;'2022-12-10 05:48:52';99120;;;1;50
30343;BME280;17145;49.902;8.680;'2022-12-10 05:51:19';99120;;;1;50
30343;BME280;17145;49.902;8.680;'2022-12-10 05:53:47';99120;;;1;50
30343;BME280;17145;49.902;8.680;'2022-12-10 05:56:14';99120;;;1;50
30343;BME280;17145;49.902;8.680;'2022-12-10 05:58:42';99130;;;1;50
30343;BME280;17145;49.902;8.680;'2022-12-10 06:01:11';99130;;;1;50
30343;BME280;17145;49.902;8.680;'2022-12-10 06:03:39';99130;;;1;50
30343;BME280;17145;49.902;8.680;'2022-12-10 06:06:10';99140;;;1;50
30343;BME280;17145;49.902;8.680;'2022-12-10 06:08:39';99140;;;1;50
30343;BME280;17145;49.902;8.680;'2022-12-10 06:11:09';99150;;;0;50
30343;BME280;17145;49.902;8.680;'2022-12-10 06:13:36';99150;;;1;50
30343;BME280;17145;49.902;8.680;'2022-12-10 06:16:06';99160;;;1;50
30343;BME280;17145;49.902;8.680;'2022-12-10 06:18:35';99150;;;1;50
30343;BME280;17145;49.902;8.680;'2022-12-10 06:21:05';99160;;;1;51
30343;BME280;17145;49.902;8.680;'2022-12-10 06:23:35';99160;;;1;51
30343;BME280;17145;49.902;8.680;'2022-12-10 06:26:05';99160;;;1;51
30343;BME280;17145;49.902;8.680;'2022-12-10 06:28:34';99160;;;1;51
30343;BME280;17145;49.902;8.680;'2022-12-10 06:31:02';99160;;;0;51
30343;BME280;17145;49.902;8.680;'2022-12-10 06:33:30';99160;;;1;50
30343;BME280;17145;49.902;8.680;'2022-12-10 06:35:59';99160;;;1;50
30343;BME280;17145;49.902;8.680;'2022-12-10 06:38:29';99160;;;1;50
30343;BME280;17145;49.902;8.680;'2022-12-10 06:41:01';99160;;;1;50
30343;BME280;17145;49.902;8.680;'2022-12-10 06:43:28';99170;;;1;50
30343;BME280;17145;49.902;8.680;'2022-12-10 06:46:00';99170;;;1;50
30343;BME280;17145;49.902;8.680;'2022-12-10 06:48:28';99170;;;1;50
30343;BME280;17145;49.902;8.680;'2022-12-10 06:50:56';99180;;;1;50
30343;BME280;17145;49.902;8.680;'2022-12-10 06:53:24';99170;;;1;50
30343;BME280;17145;49.902;8.680;'2022-12-10 06:55:59';99180;;;1;50
30343;BME280;17145;49.902;8.680;'2022-12-10 06:58:28';99170;;;1;50
30343;BME280;17145;49.902;8.680;'2022-12-10 07:00:55';99180;;;1;50
30343;BME280;17145;49.902;8.680;'2022-12-10 07:03:24';99180;;;0;50
30343;BME280;17145;49.902;8.680;'2022-12-10 07:05:51';99180;;;0;50
30343;BME280;17145;49.902;8.680;'2022-12-10 07:08:19';99180;;;0;50
30343;BME280;17145;49.902;8.680;'2022-12-10 07:10:46';99180;;;0;50
30343;BME280;17145;49.902;8.680;'2022-12-10 07:13:14';99190;;;1;50
30343;BME280;17145;49.902;8.680;'2022-12-10 07:15:42';99180;;;0;50
30343;BME280;17145;49.902;8.680;'2022-12-10 07:18:09';99190;;;1;50
30343;BME280;17145;49.902;8.680;'2022-12-10 07:20:39';99190;;;0;50
30343;BME280;17145;49.902;8.680;'2022-12-10 07:23:07';99190;;;0;50
30343;BME280;17145;49.902;8.680;'2022-12-10 07:25:37';99200;;;0;50
30343;BME280;17145;49.902;8.680;'2022-12-10 07:28:05';99200;;;0;50
30343;BME280;17145;49.902;8.680;'2022-12-10 07:30:33';99200;;;0;51
30343;BME280;17145;49.902;8.680;'2022-12-10 07:33:00';99200;;;1;51
30343;BME280;17145;49.902;8.680;'2022-12-10 07:35:28';99210;;;0;51
30343;BME280;17145;49.902;8.680;'2022-12-10 07:37:55';99210;;;0;51
30343;BME280;17145;49.902;8.680;'2022-12-10 07:40:22';99210;;;0;51
30343;BME280;17145;49.902;8.680;'2022-12-10 07:42:51';99210;;;0;51
30343;BME280;17145;49.902;8.680;'2022-12-10 07:45:18';99220;;;0;51
30343;BME280;17145;49.902;8.680;'2022-12-10 07:47:45';99220;;;0;51
30343;BME280;17145;49.902;8.680;'2022-12-10 07:50:13';99230;;;0;51
30343;BME280;17145;49.902;8.680;'2022-12-10 07:52:40';99230;;;0;51
30343;BME280;17145;49.902;8.680;'2022-12-10 07:55:08';99230;;;0;51
30343;BME280;17145;49.902;8.680;'2022-12-10 07:57:35';99230;;;0;51
30343;BME280;17145;49.902;8.680;'2022-12-10 08:00:04';99230;;;0;51
30343;BME280;17145;49.902;8.680;'2022-12-10 08:02:32';99240;;;0;51
30343;BME280;17145;49.902;8.680;'2022-12-10 08:04:59';99240;;;0;51
30343;BME280;17145;49.902;8.680;'2022-12-10 08:07:27';99240;;;0;51
30343;BME280;17145;49.902;8.680;'2022-12-10 08:09:54';99240;;;0;51
30343;BME280;17145;49.902;8.680;'2022-12-10 08:12:21';99240;;;1;51
30343;BME280;17145;49.902;8.680;'2022-12-10 08:14:49';99240;;;0;51
30343;BME280;17145;49.902;8.680;'2022-12-10 08:17:16';99240;;;0;51
30343;BME280;17145;49.902;8.680;'2022-12-10 08:19:44';99240;;;1;51
30343;BME280;17145;49.902;8.680;'2022-12-10 08:22:11';99240;;;1;51
30343;BME280;17145;49.902;8.680;'2022-12-10 08:24:39';99240;;;0;51
30343;BME280;17145;49.902;8.680;'2022-12-10 08:27:07';99240;;;0;51
30343;BME280;17145;49.902;8.680;'2022-12-10 08:29:35';99250;;;0;51
30343;BME280;17145;49.902;8.680;'2022-12-10 08:32:03';99260;;;0;51
30343;BME280;17145;49.902;8.680;'2022-12-10 08:34:30';99260;;;0;50
30343;BME280;17145;49.902;8.680;'2022-12-10 08:36:57';99260;;;1;50
30343;BME280;17145;49.902;8.680;'2022-12-10 08:39:25';99260;;;1;50
30343;BME280;17145;49.902;8.680;'2022-12-10 08:41:53';99260;;;1;50
30343;BME280;17145;49.902;8.680;'2022-12-10 08:44:23';99270;;;1;50
30343;BME280;17145;49.902;8.680;'2022-12-10 08:46:52';99270;;;1;50
30343;BME280;17145;49.902;8.680;'2022-12-10 08:49:20';99270;;;1;50
30343;BME280;17145;49.902;8.680;'2022-12-10 08:51:48';99270;;;0;50
30343;BME280;17145;49.902;8.680;'2022-12-10 08:54:16';99270;;;1;50
30343;BME280;17145;49.902;8.680;'2022-12-10 08:56:44';99270;;;1;50
30343;BME280;17145;49.902;8.680;'2022-12-10 08:59:11';99270;;;1;49
30343;BME280;17145;49.902;8.680;'2022-12-10 09:01:39';99280;;;1;49
30343;BME280;17145;49.902;8.680;'2022-12-10 09:04:07';99280;;;1;49
30343;BME280;17145;49.902;8.680;'2022-12-10 09:06:35';99280;;;1;49
30343;BME280;17145;49.902;8.680;'2022-12-10 09:09:02';99280;;;1;49
30343;BME280;17145;49.902;8.680;'2022-12-10 09:11:30';99280;;;1;50
30343;BME280;17145;49.902;8.680;'2022-12-10 09:13:57';99290;;;1;50
30343;BME280;17145;49.902;8.680;'2022-12-10 09:16:27';99290;;;1;49
30343;BME280;17145;49.902;8.680;'2022-12-10 09:18:56';99290;;;1;49
30343;BME280;17145;49.902;8.680;'2022-12-10 09:21:26';99290;;;1;49
30343;BME280;17145;49.902;8.680;'2022-12-10 09:23:54';99300;;;1;49
30343;BME280;17145;49.902;8.680;'2022-12-10 09:26:24';99300;;;1;49
30343;BME280;17145;49.902;8.680;'2022-12-10 09:28:51';99300;;;1;49
30343;BME280;17145;49.902;8.680;'2022-12-10 09:31:21';99300;;;1;48
30343;BME280;17145;49.902;8.680;'2022-12-10 09:33:48';99300;;;1;49
30343;BME280;17145;49.902;8.680;'2022-12-10 09:36:17';99300;;;1;49
30343;BME280;17145;49.902;8.680;'2022-12-10 09:38:45';99300;;;1;49
30343;BME280;17145;49.902;8.680;'2022-12-10 09:41:14';99300;;;1;49
30343;BME280;17145;49.902;8.680;'2022-12-10 09:43:42';99300;;;1;49
30343;BME280;17145;49.902;8.680;'2022-12-10 09:46:11';99310;;;1;48
30343;BME280;17145;49.902;8.680;'2022-12-10 09:48:39';99310;;;1;49
30343;BME280;17145;49.902;8.680;'2022-12-10 09:51:08';99310;;;1;49
30343;BME280;17145;49.902;8.680;'2022-12-10 09:53:35';99320;;;1;49
30343;BME280;17145;49.902;8.680;'2022-12-10 09:56:03';99310;;;1;49
30343;BME280;17145;49.902;8.680;'2022-12-10 09:58:31';99310;;;1;48
30343;BME280;17145;49.902;8.680;'2022-12-10 10:00:59';99310;;;1;49
30343;BME280;17145;49.902;8.680;'2022-12-10 10:03:26';99310;;;1;49
30343;BME280;17145;49.902;8.680;'2022-12-10 10:05:54';99320;;;1;48
30343;BME280;17145;49.902;8.680;'2022-12-10 10:08:21';99320;;;1;48
30343;BME280;17145;49.902;8.680;'2022-12-10 10:10:48';99320;;;1;48
30343;BME280;17145;49.902;8.680;'2022-12-10 10:13:16';99320;;;1;48
30343;BME280;17145;49.902;8.680;'2022-12-10 10:15:50';99320;;;1;48
30343;BME280;17145;49.902;8.680;'2022-12-10 10:18:17';99320;;;1;48
30343;BME280;17145;49.902;8.680;'2022-12-10 10:20:45';99320;;;1;48
30343;BME280;17145;49.902;8.680;'2022-12-10 10:23:12';99320;;;1;48
30343;BME280;17145;49.902;8.680;'2022-12-10 10:25:40';99320;;;1;48
30343;BME280;17145;49.902;8.680;'2022-12-10 10:28:07';99320;;;1;49
30343;BME280;17145;49.902;8.680;'2022-12-10 10:30:34';99320;;;1;48
30343;BME280;17145;49.902;8.680;'2022-12-10 10:33:02';99320;;;1;48
30343;BME280;17145;49.902;8.680;'2022-12-10 10:35:30';99330;;;1;48
30343;BME280;17145;49.902;8.680;'2022-12-10 10:37:57';99330;;;1;48
30343;BME280;17145;49.902;8.680;'2022-12-10 10:40:34';99330;;;1;48
30343;BME280;17145;49.902;8.680;'2022-12-10 10:43:10';99320;;;1;48
30343;BME280;17145;49.902;8.680;'2022-12-10 10:45:46';99320;;;1;48
30343;BME280;17145;49.902;8.680;'2022-12-10 10:48:23';99320;;;2;48
30343;BME280;17145;49.902;8.680;'2022-12-10 10:50:59';99320;;;2;48
30343;BME280;17145;49.902;8.680;'2022-12-10 10:53:29';99320;;;2;48
30343;BME280;17145;49.902;8.680;'2022-12-10 10:55:58';99310;;;2;48
30343;BME280;17145;49.902;8.680;'2022-12-10 10:58:27';99310;;;2;47
30343;BME280;17145;49.902;8.680;'2022-12-10 11:00:58';99310;;;2;47
30343;BME280;17145;49.902;8.680;'2022-12-10 11:03:28';99300;;;2;46
30343;BME280;17145;49.902;8.680;'2022-12-10 11:05:56';99300;;;2;46
30343;BME280;17145;49.902;8.680;'2022-12-10 11:08:29';99310;;;2;46
30343;BME280;17145;49.902;8.680;'2022-12-10 11:10:58';99310;;;2;46
30343;BME280;17145;49.902;8.680;'2022-12-10 11:16:06';99310;;;3;46
30343;BME280;17145;49.902;8.680;'2022-12-10 11:18:38';99320;;;3;45
30343;BME280;17145;49.902;8.680;'2022-12-10 11:21:13';99320;;;2;45
30343;BME280;17145;49.902;8.680;'2022-12-10 11:23:44';99320;;;3;46
30343;BME280;17145;49.902;8.680;'2022-12-10 11:26:12';99320;;;3;46
30343;BME280;17145;49.902;8.680;'2022-12-10 11:28:41';99320;;;3;46
30343;BME280;17145;49.902;8.680;'2022-12-10 11:31:18';99320;;;2;46
30343;BME280;17145;49.902;8.680;'2022-12-10 11:33:50';99320;;;2;46
30343;BME280;17145;49.902;8.680;'2022-12-10 11:36:23';99320;;;2;46
30343;BME280;17145;49.902;8.680;'2022-12-10 11:38:50';99320;;;2;47
30343;BME280;17145;49.902;8.680;'2022-12-10 11:41:18';99310;;;3;47
30343;BME280;17145;49.902;8.680;'2022-12-10 11:43:46';99310;;;2;47
30343;BME280;17145;49.902;8.680;'2022-12-10 11:46:16';99310;;;3;47
30343;BME280;17145;49.902;8.680;'2022-12-10 11:48:44';99310;;;2;47
30343;BME280;17145;49.902;8.680;'2022-12-10 11:51:19';99320;;;2;46
30343;BME280;17145;49.902;8.680;'2022-12-10 11:53:48';99320;;;2;46
30343;BME280;17145;49.902;8.680;'2022-12-10 11:56:20';99310;;;2;46
30343;BME280;17145;49.902;8.680;'2022-12-10 11:58:55';99310;;;2;47
30343;BME280;17145;49.902;8.680;'2022-12-10 12:01:25';99310;;;3;47
30343;BME280;17145;49.902;8.680;'2022-12-10 12:03:57';99320;;;2;47
30343;BME280;17145;49.902;8.680;'2022-12-10 12:06:26';99320;;;3;46
30343;BME280;17145;49.902;8.680;'2022-12-10 12:08:57';99310;;;2;47
30343;BME280;17145;49.902;8.680;'2022-12-10 12:11:33';99320;;;2;47
30343;BME280;17145;49.902;8.680;'2022-12-10 12:14:15';99320;;;3;46
30343;BME280;17145;49.902;8.680;'2022-12-10 12:16:43';99320;;;2;46
30343;BME280;17145;49.902;8.680;'2022-12-10 12:19:19';99320;;;3;46
30343;BME280;17145;49.902;8.680;'2022-12-10 12:21:47';99320;;;3;47
30343;BME280;17145;49.902;8.680;'2022-12-10 12:24:18';99320;;;3;47
30343;BME280;17145;49.902;8.680;'2022-12-10 12:26:56';99320;;;2;46
30343;BME280;17145;49.902;8.680;'2022-12-10 12:29:41';99320;;;3;47
30343;BME280;17145;49.902;8.680;'2022-12-10 12:32:24';99320;;;2;47
30343;BME280;17145;49.902;8.680;'2022-12-10 12:35:06';99320;;;2;47
30343;BME280;17145;49.902;8.680;'2022-12-10 12:37:40';99320;;;2;47
30343;BME280;17145;49.902;8.680;'2022-12-10 12:40:27';99320;;;2;47
30343;BME280;17145;49.902;8.680;'2022-12-10 12:43:09';99320;;;2;47
30343;BME280;17145;49.902;8.680;'2022-12-10 12:45:49';99320;;;2;47
30343;BME280;17145;49.902;8.680;'2022-12-10 12:48:30';99320;;;2;47
30343;BME280;17145;49.902;8.680;'2022-12-10 12:51:03';99320;;;2;48
30343;BME280;17145;49.902;8.680;'2022-12-10 12:53:49';99320;;;3;47
30343;BME280;17145;49.902;8.680;'2022-12-10 12:56:24';99320;;;2;47
30343;BME280;17145;49.902;8.680;'2022-12-10 12:59:09';99320;;;2;47
30343;BME280;17145;49.902;8.680;'2022-12-10 13:01:51';99320;;;2;47
30343;BME280;17145;49.902;8.680;'2022-12-10 13:04:27';99320;;;3;47
30343;BME280;17145;49.902;8.680;'2022-12-10 13:07:15';99330;;;2;48
30343;BME280;17145;49.902;8.680;'2022-12-10 13:09:54';99330;;;3;47
30343;BME280;17145;49.902;8.680;'2022-12-10 13:12:34';99330;;;3;47
30343;BME280;17145;49.902;8.680;'2022-12-10 13:15:08';99320;;;3;47
30343;BME280;17145;49.902;8.680;'2022-12-10 13:17:41';99330;;;3;47
30343;BME280;17145;49.902;8.680;'2022-12-10 13:20:17';99330;;;3;47
30343;BME280;17145;49.902;8.680;'2022-12-10 13:22:49';99330;;;3;47
30343;BME280;17145;49.902;8.680;'2022-12-10 13:25:22';99330;;;3;47
30343;BME280;17145;49.902;8.680;'2022-12-10 13:27:55';99340;;;3;47
30343;BME280;17145;49.902;8.680;'2022-12-10 13:30:23';99340;;;3;46
30343;BME280;17145;49.902;8.680;'2022-12-10 13:32:57';99340;;;3;46
30343;BME280;17145;49.902;8.680;'2022-12-10 13:35:34';99340;;;2;46
30343;BME280;17145;49.902;8.680;'2022-12-10 13:38:11';99340;;;3;47
30343;BME280;17145;49.902;8.680;'2022-12-10 13:40:46';99340;;;2;46
30343;BME280;17145;49.902;8.680;'2022-12-10 13:43:19';99330;;;2;47
30343;BME280;17145;49.902;8.680;'2022-12-10 13:45:49';99330;;;3;47
30343;BME280;17145;49.902;8.680;'2022-12-10 13:48:23';99340;;;2;47
30343;BME280;17145;49.902;8.680;'2022-12-10 13:50:55';99340;;;2;47
30343;BME280;17145;49.902;8.680;'2022-12-10 13:53:23';99340;;;2;47
30343;BME280;17145;49.902;8.680;'2022-12-10 13:56:01';99340;;;2;48
30343;BME280;17145;49.902;8.680;'2022-12-10 13:58:38';99340;;;2;48
30343;BME280;17145;49.902;8.680;'2022-12-10 14:01:17';99340;;;2;47
30343;BME280;17145;49.902;8.680;'2022-12-10 14:03:48';99340;;;3;47
30343;BME280;17145;49.902;8.680;'2022-12-10 14:06:20';99340;;;3;47
30343;BME280;17145;49.902;8.680;'2022-12-10 14:08:48';99340;;;3;46
30343;BME280;17145;49.902;8.680;'2022-12-10 14:11:24';99340;;;3;47
30343;BME280;17145;49.902;8.680;'2022-12-10 14:19:21';99350;;;3;46
30343;BME280;17145;49.902;8.680;'2022-12-10 14:24:38';99350;;;3;47
30343;BME280;17145;49.902;8.680;'2022-12-10 14:27:15';99350;;;3;47
30343;BME280;17145;49.902;8.680;'2022-12-10 14:29:46';99360;;;3;46
30343;BME280;17145;49.902;8.680;'2022-12-10 14:32:17';99360;;;3;47
30343;BME280;17145;49.902;8.680;'2022-12-10 14:34:46';99370;;;3;47
30343;BME280;17145;49.902;8.680;'2022-12-10 14:37:18';99370;;;2;46
30343;BME280;17145;49.902;8.680;'2022-12-10 14:39:53';99370;;;2;46
30343;BME280;17145;49.902;8.680;'2022-12-10 14:42:28';99380;;;3;46
30343;BME280;17145;49.902;8.680;'2022-12-10 14:45:02';99380;;;3;46
30343;BME280;17145;49.902;8.680;'2022-12-10 14:47:41';99380;;;2;46
30343;BME280;17145;49.902;8.680;'2022-12-10 14:50:18';99380;;;3;46
30343;BME280;17145;49.902;8.680;'2022-12-10 14:52:56';99380;;;2;46
30343;BME280;17145;49.902;8.680;'2022-12-10 14:55:35';99390;;;3;46
30343;BME280;17145;49.902;8.680;'2022-12-10 14:58:23';99390;;;3;46
30343;BME280;17145;49.902;8.680;'2022-12-10 15:00:57';99400;;;2;47
30343;BME280;17145;49.902;8.680;'2022-12-10 15:03:42';99390;;;2;46
30343;BME280;17145;49.902;8.680;'2022-12-10 15:06:15';99400;;;3;47
30343;BME280;17145;49.902;8.680;'2022-12-10 15:08:54';99400;;;2;47
30343;BME280;17145;49.902;8.680;'2022-12-10 15:11:26';99410;;;2;47
30343;BME280;17145;49.902;8.680;'2022-12-10 15:13:58';99400;;;3;46
30343;BME280;17145;49.902;8.680;'2022-12-10 15:16:29';99400;;;2;47
30343;BME280;17145;49.902;8.680;'2022-12-10 15:19:00';99410;;;2;47
30343;BME280;17145;49.902;8.680;'2022-12-10 15:21:34';99410;;;3;47
30343;BME280;17145;49.902;8.680;'2022-12-10 15:24:02';99410;;;3;47
30343;BME280;17145;49.902;8.680;'2022-12-10 15:26:32';99420;;;3;47
30343;BME280;17145;49.902;8.680;'2022-12-10 15:29:06';99420;;;3;46
30343;BME280;17145;49.902;8.680;'2022-12-10 15:31:37';99420;;;3;46
30343;BME280;17145;49.902;8.680;'2022-12-10 15:34:07';99420;;;3;46
30343;BME280;17145;49.902;8.680;'2022-12-10 15:36:43';99430;;;3;46
30343;BME280;17145;49.902;8.680;'2022-12-10 15:39:14';99430;;;3;46
30343;BME280;17145;49.902;8.680;'2022-12-10 15:41:42';99430;;;3;46
30343;BME280;17145;49.902;8.680;'2022-12-10 15:44:14';99430;;;3;47
30343;BME280;17145;49.902;8.680;'2022-12-10 15:46:42';99440;;;3;47
30343;BME280;17145;49.902;8.680;'2022-12-10 15:49:16';99440;;;3;47
30343;BME280;17145;49.902;8.680;'2022-12-10 15:51:43';99440;;;3;47
30343;BME280;17145;49.902;8.680;'2022-12-10 15:54:26';99440;;;3;46
30343;BME280;17145;49.902;8.680;'2022-12-10 15:56:56';99450;;;3;46
30343;BME280;17145;49.902;8.680;'2022-12-10 15:59:28';99450;;;3;46
30343;BME280;17145;49.902;8.680;'2022-12-10 16:01:58';99450;;;3;46
30343;BME280;17145;49.902;8.680;'2022-12-10 16:04:34';99450;;;3;46